createdAt,value
2018-08-24T00:01:58.951Z,3.43
2018-08-24T00:04:26.674Z,1.77
2018-08-24T00:06:54.315Z,1.80
2018-08-24T00:09:25.944Z,3.37
2018-08-24T00:11:53.632Z,2.67
2018-08-24T00:14:21.301Z,2.20
2018-08-24T00:16:49.055Z,2.13
2018-08-24T00:19:17.393Z,2.00
2018-08-24T00:21:45.926Z,3.00
2018-08-24T00:24:14.198Z,2.50
2018-08-24T00:26:41.867Z,1.90
2018-08-24T00:29:09.729Z,1.63
2018-08-24T00:31:38.024Z,3.90
2018-08-24T00:34:05.864Z,2.20
2018-08-24T00:36:33.529Z,3.93
2018-08-24T00:39:01.204Z,4.60
2018-08-24T00:41:28.932Z,4.40
2018-08-24T00:43:56.622Z,2.40
2018-08-24T00:46:24.290Z,2.23
2018-08-24T00:48:51.988Z,4.60
2018-08-24T00:51:19.656Z,3.23
2018-08-24T00:53:47.309Z,2.57
2018-08-24T00:56:15.003Z,1.50
2018-08-24T00:58:42.684Z,4.00
2018-08-24T01:01:10.539Z,1.30
2018-08-24T01:03:38.674Z,3.77
2018-08-24T01:06:06.612Z,2.30
2018-08-24T01:08:34.477Z,2.83
2018-08-24T01:11:02.183Z,1.90
2018-08-24T01:13:29.847Z,3.13
2018-08-24T01:15:58.762Z,3.87
2018-08-24T01:18:32.069Z,2.73
2018-08-24T01:20:59.878Z,2.80
2018-08-24T01:23:29.046Z,2.00
2018-08-24T01:25:56.779Z,2.60
2018-08-24T01:28:25.937Z,0.97
2018-08-24T01:30:53.761Z,1.37
2018-08-24T01:33:21.420Z,2.97
2018-08-24T01:35:49.118Z,2.53
2018-08-24T01:38:16.822Z,2.30
2018-08-24T01:40:44.482Z,1.57
2018-08-24T01:43:12.166Z,1.63
2018-08-24T01:45:39.843Z,0.80
2018-08-24T01:48:08.543Z,1.00
2018-08-24T01:50:36.285Z,2.20
2018-08-24T01:53:04.065Z,1.87
2018-08-24T01:55:31.744Z,3.27
2018-08-24T01:57:59.415Z,1.47
2018-08-24T02:00:27.070Z,1.47
2018-08-24T02:02:54.728Z,2.10
2018-08-24T02:05:22.467Z,0.83
2018-08-24T02:07:50.146Z,0.93
2018-08-24T02:10:23.481Z,3.13
2018-08-24T02:12:56.628Z,2.33
2018-08-24T02:15:24.362Z,2.63
2018-08-24T02:17:57.605Z,1.57
2018-08-24T02:20:30.881Z,3.47
2018-08-24T02:23:00.658Z,1.33
2018-08-24T02:25:28.341Z,2.13
2018-08-24T02:27:56.180Z,1.40
2018-08-24T02:30:23.850Z,1.97
2018-08-24T02:32:51.523Z,3.23
2018-08-24T02:35:19.936Z,2.23
2018-08-24T02:37:49.865Z,2.60
2018-08-24T02:40:17.591Z,3.80
2018-08-24T02:42:46.101Z,2.10
2018-08-24T02:45:13.831Z,2.13
2018-08-24T02:47:41.512Z,5.20
2018-08-24T02:50:09.236Z,4.37
2018-08-24T02:52:36.941Z,3.83
2018-08-24T02:55:04.598Z,5.40
2018-08-24T02:57:32.422Z,3.93
2018-08-24T03:00:00.142Z,3.47
2018-08-24T03:02:28.370Z,3.13
2018-08-24T03:04:56.041Z,3.60
2018-08-24T03:07:23.980Z,1.10
2018-08-24T03:09:51.688Z,1.70
2018-08-24T03:12:19.350Z,2.37
2018-08-24T03:14:47.061Z,1.77
2018-08-24T03:17:20.269Z,1.23
2018-08-24T03:19:48.066Z,1.23
2018-08-24T03:22:15.809Z,1.00
2018-08-24T03:24:43.677Z,1.33
2018-08-24T03:27:11.382Z,0.60
2018-08-24T03:29:39.042Z,1.77
2018-08-24T03:32:06.782Z,4.53
2018-08-24T03:34:34.501Z,4.10
2018-08-24T03:37:02.170Z,3.93
2018-08-24T03:39:29.860Z,2.17
2018-08-24T03:41:57.538Z,3.33
2018-08-24T03:44:25.206Z,3.90
2018-08-24T03:46:52.960Z,3.00
2018-08-24T03:49:20.654Z,3.53
2018-08-24T03:51:48.309Z,3.03
2018-08-24T03:54:21.297Z,4.13
2018-08-24T03:56:59.151Z,4.33
2018-08-24T03:59:27.144Z,3.43
2018-08-24T04:01:55.601Z,3.33
2018-08-24T04:04:23.549Z,5.23
2018-08-24T04:06:51.205Z,4.30
2018-08-24T04:09:18.910Z,5.37
2018-08-24T04:11:46.601Z,3.00
2018-08-24T04:14:14.273Z,3.30
2018-08-24T04:16:47.606Z,6.33
2018-08-24T04:19:24.318Z,2.97
2018-08-24T04:21:52.065Z,2.60
2018-08-24T04:24:19.783Z,5.70
2018-08-24T04:26:47.441Z,4.53
2018-08-24T04:29:15.108Z,2.67
2018-08-24T04:31:42.817Z,2.53
2018-08-24T04:34:10.467Z,4.27
2018-08-24T04:36:38.210Z,2.63
2018-08-24T04:39:07.812Z,2.47
2018-08-24T04:41:35.600Z,3.53
2018-08-24T04:44:03.310Z,2.03
2018-08-24T04:46:31.245Z,2.20
2018-08-24T04:48:58.934Z,3.50
2018-08-24T04:51:27.007Z,4.93
2018-08-24T04:53:54.665Z,2.37
2018-08-24T04:56:22.337Z,4.27
2018-08-24T04:58:49.999Z,2.93
2018-08-24T05:01:17.785Z,4.57
2018-08-24T05:03:45.464Z,2.80
2018-08-24T05:06:13.106Z,2.13
2018-08-24T05:08:40.772Z,2.87
2018-08-24T05:11:08.545Z,4.13
2018-08-24T05:13:36.239Z,2.23
2018-08-24T05:16:03.949Z,1.90
2018-08-24T05:18:31.639Z,5.50
2018-08-24T05:20:59.354Z,4.17
2018-08-24T05:23:26.989Z,3.53
2018-08-24T05:25:54.664Z,5.97
2018-08-24T05:28:22.410Z,2.33
2018-08-24T05:30:50.118Z,2.23
2018-08-24T05:33:17.795Z,3.13
2018-08-24T05:35:45.601Z,1.57
2018-08-24T05:38:13.193Z,3.17
2018-08-24T05:40:40.912Z,2.13
2018-08-24T05:43:08.677Z,1.57
2018-08-24T05:45:36.364Z,3.47
2018-08-24T05:48:04.105Z,2.07
2018-08-24T05:50:32.268Z,1.10
2018-08-24T05:52:59.943Z,1.23
2018-08-24T05:55:27.673Z,3.33
2018-08-24T05:57:55.442Z,3.73
2018-08-24T06:00:28.648Z,3.43
2018-08-24T06:02:56.352Z,4.80
2018-08-24T06:05:24.080Z,4.83
2018-08-24T06:07:51.935Z,4.77
2018-08-24T06:10:19.757Z,6.40
2018-08-24T06:12:47.468Z,7.80
2018-08-24T06:15:15.509Z,3.30
2018-08-24T06:17:49.253Z,4.67
2018-08-24T06:20:17.280Z,3.27
2018-08-24T06:22:44.952Z,4.80
2018-08-24T06:25:13.218Z,4.73
2018-08-24T06:27:41.095Z,5.53
2018-08-24T06:30:09.022Z,4.03
2018-08-24T06:32:36.697Z,4.20
2018-08-24T06:35:04.478Z,5.23
2018-08-24T06:37:32.279Z,4.00
2018-08-24T06:39:59.953Z,7.00
2018-08-24T06:42:27.661Z,4.87
2018-08-24T06:44:55.428Z,4.40
2018-08-24T06:47:23.215Z,3.23
2018-08-24T06:49:50.849Z,3.03
2018-08-24T06:52:18.547Z,4.03
2018-08-24T06:54:46.266Z,3.90
2018-08-24T06:57:14.099Z,2.93
2018-08-24T06:59:41.850Z,2.90
2018-08-24T07:02:09.546Z,3.87
2018-08-24T07:04:37.260Z,2.27
2018-08-24T07:07:05.005Z,2.53
2018-08-24T07:09:32.922Z,2.57
2018-08-24T07:12:00.608Z,2.27
2018-08-24T07:14:28.306Z,0.70
2018-08-24T07:16:59.993Z,1.47
2018-08-24T07:19:28.148Z,1.30
2018-08-24T07:21:56.012Z,3.37
2018-08-24T07:24:24.202Z,2.93
2018-08-24T07:26:51.897Z,1.60
2018-08-24T07:29:19.682Z,2.80
2018-08-24T07:31:47.361Z,1.20
2018-08-24T07:34:15.057Z,3.43
2018-08-24T07:36:42.777Z,2.03
2018-08-24T07:39:12.536Z,5.90
2018-08-24T07:41:40.272Z,5.80
2018-08-24T07:44:08.183Z,4.03
2018-08-24T07:46:35.889Z,4.53
2018-08-24T07:49:04.172Z,2.37
2018-08-24T07:51:31.901Z,3.47
2018-08-24T07:53:59.629Z,3.03
2018-08-24T07:56:29.069Z,4.27
2018-08-24T07:58:57.425Z,3.27
2018-08-24T08:01:25.380Z,1.73
2018-08-24T08:03:53.091Z,5.87
2018-08-24T08:06:20.772Z,2.50
2018-08-24T08:08:48.837Z,1.50
2018-08-24T08:11:16.529Z,3.93
2018-08-24T08:13:44.273Z,3.37
2018-08-24T08:16:11.962Z,3.33
2018-08-24T08:18:39.709Z,3.80
2018-08-24T08:21:07.477Z,3.03
2018-08-24T08:23:35.155Z,4.10
2018-08-24T08:26:02.910Z,1.30
2018-08-24T08:28:30.574Z,1.90
2018-08-24T08:30:58.664Z,1.97
2018-08-24T08:33:26.351Z,2.10
2018-08-24T08:35:54.022Z,2.03
2018-08-24T08:38:21.704Z,1.37
2018-08-24T08:40:49.388Z,2.37
2018-08-24T08:43:17.213Z,3.00
2018-08-24T08:45:45.028Z,1.43
2018-08-24T08:48:12.794Z,2.40
2018-08-24T08:50:40.498Z,3.53
2018-08-24T08:53:08.287Z,3.87
2018-08-24T08:55:35.965Z,6.80
2018-08-24T08:58:03.668Z,7.87
2018-08-24T09:00:31.524Z,5.10
2018-08-24T09:02:59.224Z,7.20
2018-08-24T09:05:26.933Z,5.10
2018-08-24T09:07:54.688Z,3.90
2018-08-24T09:10:22.404Z,4.80
2018-08-24T09:12:50.100Z,7.87
2018-08-24T09:15:17.797Z,4.47
2018-08-24T09:17:51.157Z,4.17
2018-08-24T09:20:24.441Z,5.50
2018-08-24T09:22:57.717Z,5.90
2018-08-24T09:25:30.879Z,5.33
2018-08-24T09:28:04.070Z,8.57
2018-08-24T09:30:35.379Z,6.30
2018-08-24T09:33:03.146Z,8.20
2018-08-24T09:35:30.745Z,6.83
2018-08-24T09:37:58.442Z,6.80
2018-08-24T09:40:31.674Z,11.23
2018-08-24T09:43:03.853Z,5.43
2018-08-24T09:45:31.584Z,4.23
2018-08-24T09:48:04.624Z,7.03
2018-08-24T09:50:37.748Z,7.40
2018-08-24T09:53:10.922Z,6.83
2018-08-24T09:55:38.652Z,9.03
2018-08-24T09:58:06.360Z,7.07
2018-08-24T10:00:39.818Z,8.43
2018-08-24T10:03:13.160Z,6.50
2018-08-24T10:05:46.427Z,5.97
2018-08-24T10:08:19.701Z,5.97
2018-08-24T10:10:47.742Z,4.50
2018-08-24T10:13:15.429Z,3.80
2018-08-24T10:15:43.105Z,4.70
2018-08-24T10:18:10.925Z,4.70
2018-08-24T10:20:38.621Z,4.63
2018-08-24T10:23:06.503Z,3.37
2018-08-24T10:25:34.256Z,4.17
2018-08-24T10:28:01.960Z,5.67
2018-08-24T10:30:29.700Z,5.07
2018-08-24T10:32:57.482Z,6.40
2018-08-24T10:35:25.179Z,4.70
2018-08-24T10:37:52.882Z,7.07
2018-08-24T10:40:20.672Z,8.63
2018-08-24T10:42:48.357Z,7.67
2018-08-24T10:45:16.055Z,8.43
2018-08-24T10:47:43.737Z,10.73
2018-08-24T10:50:11.447Z,10.67
2018-08-24T10:52:39.128Z,11.17
2018-08-24T10:55:06.979Z,10.17
2018-08-24T10:57:34.908Z,13.33
2018-08-24T11:00:02.618Z,8.43
2018-08-24T11:02:30.492Z,7.53
2018-08-24T11:04:58.214Z,6.83
2018-08-24T11:07:26.039Z,7.93
2018-08-24T11:09:53.657Z,7.70
2018-08-24T11:12:21.426Z,8.17
2018-08-24T11:14:49.140Z,5.30
2018-08-24T11:17:16.882Z,5.40
2018-08-24T11:19:44.577Z,5.37
2018-08-24T11:22:12.276Z,5.67
2018-08-24T11:24:40.159Z,4.70
2018-08-24T11:27:07.908Z,4.10
2018-08-24T11:29:35.601Z,4.50
2018-08-24T11:32:03.309Z,4.47
2018-08-24T11:34:31.006Z,3.80
2018-08-24T11:36:58.726Z,2.97
2018-08-24T11:39:26.421Z,3.33
2018-08-24T11:41:54.220Z,5.87
2018-08-24T11:44:21.852Z,8.13
2018-08-24T11:46:49.596Z,7.40
2018-08-24T11:49:17.320Z,4.87
2018-08-24T11:51:45.017Z,5.63
2018-08-24T11:54:12.811Z,6.83
2018-08-24T11:56:40.454Z,10.60
2018-08-24T11:59:08.205Z,10.27
2018-08-24T12:01:35.938Z,16.27
2018-08-24T12:04:03.629Z,15.30
2018-08-24T12:06:31.347Z,25.67
2018-08-24T12:08:59.062Z,23.83
2018-08-24T12:11:26.793Z,20.80
2018-08-24T12:13:54.576Z,19.67
2018-08-24T12:16:22.262Z,16.33
2018-08-24T12:18:50.018Z,12.30
2018-08-24T12:21:17.780Z,11.60
2018-08-24T12:23:45.619Z,9.47
2018-08-24T12:26:13.285Z,8.70
2018-08-24T12:28:40.981Z,9.17
2018-08-24T12:31:08.662Z,9.00
2018-08-24T12:33:36.443Z,9.53
2018-08-24T12:36:08.990Z,10.67
2018-08-24T12:38:36.699Z,11.33
2018-08-24T12:41:04.456Z,14.43
2018-08-24T12:43:32.198Z,18.40
2018-08-24T12:45:59.869Z,24.70
2018-08-24T12:48:27.580Z,24.00
2018-08-24T12:50:55.329Z,28.23
2018-08-24T12:53:23.032Z,23.43
2018-08-24T12:55:50.783Z,21.80
2018-08-24T12:58:18.500Z,21.47
2018-08-24T13:00:46.194Z,26.03
2018-08-24T13:03:13.934Z,27.10
2018-08-24T13:05:41.595Z,20.17
2018-08-24T13:08:09.492Z,21.50
2018-08-24T13:10:37.228Z,22.17
2018-08-24T13:13:05.023Z,17.57
2018-08-24T13:15:32.738Z,20.57
2018-08-24T13:18:00.419Z,21.77
2018-08-24T13:20:28.124Z,17.13
2018-08-24T13:22:55.816Z,18.40
2018-08-24T13:25:23.537Z,18.70
2018-08-24T13:27:57.798Z,14.63
2018-08-24T13:30:25.513Z,15.40
2018-08-24T13:32:53.240Z,18.70
2018-08-24T13:35:20.943Z,16.13
2018-08-24T13:37:48.673Z,18.13
2018-08-24T13:40:16.372Z,13.47
2018-08-24T13:42:44.412Z,8.93
2018-08-24T13:45:12.223Z,4.20
2018-08-24T13:47:39.925Z,5.97
2018-08-24T13:50:07.822Z,5.60
2018-08-24T13:52:35.632Z,5.20
2018-08-24T13:55:03.598Z,5.60
2018-08-24T13:57:31.582Z,5.60
2018-08-24T13:59:59.450Z,7.57
2018-08-24T14:02:27.099Z,7.53
2018-08-24T14:04:54.998Z,7.37
2018-08-24T14:07:22.818Z,9.00
2018-08-24T14:09:50.509Z,7.03
2018-08-24T14:12:18.385Z,6.83
2018-08-24T14:14:46.108Z,5.97
2018-08-24T14:17:13.855Z,4.03
2018-08-24T14:19:41.812Z,4.10
2018-08-24T14:22:09.478Z,5.23
2018-08-24T14:24:37.254Z,6.67
2018-08-24T14:27:05.174Z,5.63
2018-08-24T14:29:32.861Z,8.03
2018-08-24T14:32:00.686Z,6.93
2018-08-24T14:34:28.557Z,6.40
2018-08-24T14:36:56.334Z,7.70
2018-08-24T14:39:24.112Z,8.07
2018-08-24T14:41:52.017Z,9.43
2018-08-24T14:44:19.716Z,11.00
2018-08-24T14:46:47.437Z,8.03
2018-08-24T14:49:15.328Z,8.30
2018-08-24T14:51:43.195Z,9.53
2018-08-24T14:54:11.009Z,7.77
2018-08-24T14:56:38.903Z,9.60
2018-08-24T14:59:06.574Z,10.83
2018-08-24T15:01:34.253Z,8.77
2018-08-24T15:04:02.114Z,8.40
2018-08-24T15:06:29.856Z,7.97
2018-08-24T15:08:57.514Z,7.47
2018-08-24T15:11:25.513Z,10.00
2018-08-24T15:13:53.319Z,10.50
2018-08-24T15:16:21.044Z,9.80
2018-08-24T15:18:48.989Z,11.33
2018-08-24T15:21:16.691Z,12.87
2018-08-24T15:23:44.654Z,11.03
2018-08-24T15:26:12.522Z,11.33
2018-08-24T15:28:40.323Z,17.77
2018-08-24T15:31:07.996Z,17.40
2018-08-24T15:33:35.882Z,17.50
2018-08-24T15:36:03.615Z,15.63
2018-08-24T15:38:31.306Z,14.47
2018-08-24T15:40:59.207Z,15.83
2018-08-24T15:43:26.898Z,28.77
2018-08-24T15:45:54.642Z,18.60
2018-08-24T15:48:22.477Z,20.00
2018-08-24T15:50:50.234Z,15.70
2018-08-24T15:53:17.938Z,15.63
2018-08-24T15:55:45.830Z,13.43
2018-08-24T15:58:13.552Z,17.63
2018-08-24T16:00:41.257Z,12.20
2018-08-24T16:03:09.137Z,13.00
2018-08-24T16:05:36.902Z,11.47
2018-08-24T16:08:04.813Z,15.00
2018-08-24T16:10:32.656Z,19.77
2018-08-24T16:13:00.370Z,14.40
2018-08-24T16:15:28.079Z,12.43
2018-08-24T16:18:01.650Z,12.90
2018-08-24T16:20:29.348Z,13.90
2018-08-24T16:22:57.053Z,20.00
2018-08-24T16:25:25.022Z,15.60
2018-08-24T16:27:52.719Z,14.93
2018-08-24T16:30:20.495Z,13.20
2018-08-24T16:35:17.482Z,18.73
2018-08-24T16:37:45.175Z,21.10
2018-08-24T16:40:12.878Z,19.73
2018-08-24T16:42:40.691Z,22.17
2018-08-24T16:45:08.398Z,22.80
2018-08-24T16:47:36.098Z,21.50
2018-08-24T16:50:04.033Z,19.00
2018-08-24T16:52:31.776Z,18.93
2018-08-24T16:54:59.465Z,19.33
2018-08-24T16:57:27.299Z,22.17
2018-08-24T16:59:55.030Z,29.60
2018-08-24T17:02:22.750Z,14.20
2018-08-24T17:04:50.603Z,15.90
2018-08-24T17:07:18.287Z,16.10
2018-08-24T17:09:45.984Z,16.63
2018-08-24T17:12:13.801Z,22.57
2018-08-24T17:14:41.525Z,14.23
2018-08-24T17:17:09.235Z,14.73
2018-08-24T17:19:37.051Z,14.50
2018-08-24T17:22:04.759Z,22.60
2018-08-24T17:24:32.451Z,33.33
2018-08-24T17:27:00.346Z,17.03
2018-08-24T17:29:28.103Z,20.70
2018-08-24T17:31:55.809Z,17.73
2018-08-24T17:34:23.814Z,14.00
2018-08-24T17:36:51.531Z,13.03
2018-08-24T17:39:19.244Z,11.97
2018-08-24T17:41:47.089Z,13.33
2018-08-24T17:44:14.798Z,14.73
2018-08-24T17:46:42.542Z,32.10
2018-08-24T17:49:10.441Z,31.07
2018-08-24T17:51:38.192Z,34.07
2018-08-24T17:54:06.037Z,73.97
2018-08-24T17:56:33.902Z,68.33
2018-08-24T17:59:01.640Z,73.90
2018-08-24T18:01:29.348Z,82.13
2018-08-24T18:03:57.189Z,63.47
2018-08-24T18:06:24.894Z,72.83
2018-08-24T18:08:52.596Z,66.67
2018-08-24T18:11:20.450Z,84.10
2018-08-24T18:13:48.166Z,51.67
2018-08-24T18:16:15.921Z,59.60
2018-08-24T18:18:43.793Z,46.60
2018-08-24T18:21:11.505Z,52.87
2018-08-24T18:23:39.404Z,37.17
2018-08-24T18:26:08.208Z,50.50
2018-08-24T18:28:35.922Z,40.27
2018-08-24T18:31:03.641Z,34.83
2018-08-24T18:33:31.496Z,41.20
2018-08-24T18:35:59.201Z,30.70
2018-08-24T18:38:26.896Z,26.97
2018-08-24T18:40:54.807Z,33.03
2018-08-24T18:43:22.591Z,28.63
2018-08-24T18:45:50.381Z,20.57
2018-08-24T18:48:18.170Z,28.60
2018-08-24T18:50:45.950Z,24.40
2018-08-24T18:53:13.706Z,35.23
2018-08-24T18:55:42.202Z,16.73
2018-08-24T18:58:10.074Z,25.43
2018-08-24T19:00:37.807Z,19.90
2018-08-24T19:03:05.722Z,29.70
2018-08-24T19:05:34.820Z,30.50
2018-08-24T19:08:08.743Z,18.43
2018-08-24T19:10:43.590Z,16.33
2018-08-24T19:13:14.326Z,39.83
2018-08-24T19:15:42.220Z,18.73
2018-08-24T19:18:15.673Z,18.93
2018-08-24T19:20:48.892Z,20.53
2018-08-24T19:23:16.891Z,21.13
2018-08-24T19:25:44.583Z,17.17
2018-08-24T19:28:18.061Z,13.87
2018-08-24T19:30:45.784Z,14.57
2018-08-24T19:33:13.518Z,11.27
2018-08-24T19:35:41.411Z,10.97
2018-08-24T19:38:09.106Z,8.37
2018-08-24T19:40:42.580Z,11.73
2018-08-24T19:43:10.277Z,12.17
2018-08-24T19:45:37.970Z,22.43
2018-08-24T19:48:11.289Z,29.93
2018-08-24T19:50:39.017Z,15.90
2018-08-24T19:53:06.715Z,52.83
2018-08-24T19:55:34.414Z,47.93
2018-08-24T19:58:07.769Z,35.47
2018-08-24T20:00:35.657Z,28.93
2018-08-24T20:03:03.332Z,10.23
2018-08-24T20:05:31.070Z,5.23
2018-08-24T20:08:04.345Z,3.47
2018-08-24T20:10:32.086Z,4.47
2018-08-24T20:12:59.868Z,6.13
2018-08-24T20:15:33.149Z,6.80
2018-08-24T20:18:00.843Z,5.53
2018-08-24T20:20:28.543Z,6.53
2018-08-24T20:22:56.213Z,11.80
2018-08-24T20:25:23.902Z,18.50
2018-08-24T20:27:51.609Z,9.60
2018-08-24T20:30:19.324Z,7.97
2018-08-24T20:32:47.018Z,9.00
2018-08-24T20:35:14.702Z,6.53
2018-08-24T20:37:42.566Z,13.87
2018-08-24T20:40:10.288Z,5.73
2018-08-24T20:42:37.982Z,5.50
2018-08-24T20:45:05.734Z,5.27
2018-08-24T20:47:33.429Z,7.23
2018-08-24T20:50:01.126Z,13.13
2018-08-24T20:52:28.842Z,13.50
2018-08-24T20:54:56.509Z,16.97
2018-08-24T20:57:24.182Z,14.87
2018-08-24T20:59:51.863Z,9.23
2018-08-24T21:02:19.560Z,14.97
2018-08-24T21:04:47.257Z,13.87
2018-08-24T21:07:14.944Z,12.50
2018-08-24T21:09:42.706Z,13.40
2018-08-24T21:12:10.402Z,12.50
2018-08-24T21:14:38.369Z,11.23
2018-08-24T21:17:06.081Z,12.03
2018-08-24T21:19:33.798Z,8.37
2018-08-24T21:22:01.494Z,10.07
2018-08-24T21:24:29.218Z,11.03
2018-08-24T21:26:56.986Z,12.70
2018-08-24T21:29:24.669Z,10.93
2018-08-24T21:31:52.348Z,8.87
2018-08-24T21:34:20.023Z,7.60
2018-08-24T21:36:47.712Z,7.70
2018-08-24T21:39:15.411Z,8.80
2018-08-24T21:41:43.110Z,7.47
2018-08-24T21:44:10.790Z,8.50
2018-08-24T21:46:38.490Z,6.67
2018-08-24T21:49:06.350Z,8.47
2018-08-24T21:51:34.335Z,6.43
2018-08-24T21:54:02.066Z,9.80
2018-08-24T21:56:29.770Z,7.20
2018-08-24T21:58:57.498Z,8.97
2018-08-24T22:01:25.173Z,5.90
2018-08-24T22:03:52.881Z,5.63
2018-08-24T22:06:20.583Z,7.50
2018-08-24T22:08:48.277Z,7.60
2018-08-24T22:11:16.076Z,6.73
2018-08-24T22:13:43.784Z,8.30
2018-08-24T22:16:11.464Z,8.80
2018-08-24T22:18:39.167Z,11.50
2018-08-24T22:21:07.170Z,10.13
2018-08-24T22:23:34.883Z,10.60
2018-08-24T22:26:02.629Z,17.53
2018-08-24T22:28:30.347Z,26.07
2018-08-24T22:30:58.043Z,30.90
2018-08-24T22:33:25.759Z,26.20
2018-08-24T22:35:53.450Z,31.63
2018-08-24T22:38:21.152Z,26.30
2018-08-24T22:40:48.847Z,32.23
2018-08-24T22:43:22.044Z,23.47
2018-08-24T22:45:49.757Z,27.43
2018-08-24T22:48:17.449Z,22.23
2018-08-24T22:50:45.156Z,17.70
2018-08-24T22:53:12.859Z,20.10
2018-08-24T22:55:40.561Z,14.73
2018-08-24T22:58:08.544Z,19.03
2018-08-24T23:00:36.248Z,10.20
2018-08-24T23:03:03.985Z,8.77
2018-08-24T23:05:31.688Z,10.87
2018-08-24T23:07:59.391Z,8.10
2018-08-24T23:10:27.087Z,5.87
2018-08-24T23:12:54.784Z,3.70
2018-08-24T23:15:22.496Z,6.03
2018-08-24T23:17:50.201Z,2.50
2018-08-24T23:20:17.910Z,4.23
2018-08-24T23:22:45.621Z,2.80
2018-08-24T23:25:13.330Z,2.57
2018-08-24T23:27:41.018Z,3.43
2018-08-24T23:30:08.797Z,1.90
2018-08-24T23:32:36.533Z,1.70
2018-08-24T23:35:04.268Z,3.50
2018-08-24T23:37:32.006Z,2.20
2018-08-24T23:39:59.711Z,2.50
2018-08-24T23:42:27.420Z,2.67
2018-08-24T23:44:55.142Z,3.13
2018-08-24T23:47:22.842Z,2.10
2018-08-24T23:49:50.569Z,3.67
2018-08-24T23:52:18.256Z,1.53
2018-08-24T23:54:45.963Z,3.00
2018-08-24T23:57:13.680Z,3.10
2018-08-24T23:59:41.373Z,3.00
